Time;durP1;ratioP1;P1;durP2;ratioP2;P2;SDS_P1;SDS_P2;PMS_P1;PMS_P2;Temp;Humidity;BMP_temperature;BMP_pressure;BME280_temperature;BME280_humidity;BME280_pressure;Samples;Min_cycle;Max_cycle;Signal;HPM_P1;HPM_P2
2022/09/11 00:01:36;;;;;;;10.00;4.93;;;;;;;;;;5045486;27;87165;-51
2022/09/11 00:04:05;;;;;;;12.03;5.53;;;;;;;;;;5054325;27;90230;-51
2022/09/11 00:06:33;;;;;;;8.60;5.43;;;;;;;;;;5041497;28;88647;-51
2022/09/11 00:09:02;;;;;;;9.03;5.03;;;;;;;;;;5040448;27;87043;-51
2022/09/11 00:11:32;;;;;;;9.33;5.40;;;;;;;;;;5051845;27;87134;-52
2022/09/11 00:14:00;;;;;;;8.50;5.43;;;;;;;;;;5058896;27;87079;-51
2022/09/11 00:16:29;;;;;;;7.77;4.63;;;;;;;;;;5035828;27;87852;-51
2022/09/11 00:18:58;;;;;;;10.73;5.13;;;;;;;;;;5045752;27;86986;-51
2022/09/11 00:21:26;;;;;;;10.90;5.83;;;;;;;;;;5041025;28;86187;-51
2022/09/11 00:23:54;;;;;;;8.33;5.00;;;;;;;;;;5040676;27;89260;-51
2022/09/11 00:26:23;;;;;;;9.97;5.03;;;;;;;;;;5043093;27;87759;-51
2022/09/11 00:28:54;;;;;;;12.13;5.97;;;;;;;;;;5044072;27;88016;-51
2022/09/11 00:31:23;;;;;;;9.53;4.90;;;;;;;;;;5040337;28;87127;-51
2022/09/11 00:33:51;;;;;;;9.33;5.43;;;;;;;;;;5040783;27;89360;-51
2022/09/11 00:36:20;;;;;;;11.20;6.00;;;;;;;;;;5056854;27;88905;-52
2022/09/11 00:38:49;;;;;;;9.63;4.90;;;;;;;;;;5020954;28;87055;-51
2022/09/11 00:41:18;;;;;;;8.67;5.23;;;;;;;;;;5022525;28;86961;-51
2022/09/11 00:43:51;;;;;;;11.47;5.80;;;;;;;;;;5039882;27;88890;-51
2022/09/11 00:46:20;;;;;;;10.30;4.80;;;;;;;;;;5042126;27;88937;-51
2022/09/11 00:48:49;;;;;;;9.13;4.80;;;;;;;;;;5040478;28;86965;-51
2022/09/11 00:51:18;;;;;;;8.73;5.30;;;;;;;;;;5040775;28;86884;-51
2022/09/11 00:53:47;;;;;;;7.97;4.90;;;;;;;;;;5056162;27;88813;-51
2022/09/11 00:56:15;;;;;;;8.07;4.53;;;;;;;;;;5043011;27;91419;-52
2022/09/11 00:58:43;;;;;;;10.27;5.50;;;;;;;;;;5041388;28;86929;-51
2022/09/11 01:01:13;;;;;;;10.10;5.47;;;;;;;;;;5020978;28;87042;-51
2022/09/11 01:03:43;;;;;;;8.83;5.37;;;;;;;;;;5022853;28;89585;-51
2022/09/11 01:06:11;;;;;;;9.50;4.93;;;;;;;;;;5059320;27;89821;-51
2022/09/11 01:08:39;;;;;;;11.43;5.30;;;;;;;;;;5064738;27;86778;-51
2022/09/11 01:11:13;;;;;;;9.43;4.80;;;;;;;;;;5064657;27;85965;-51
2022/09/11 01:13:43;;;;;;;10.50;5.13;;;;;;;;;;5064260;27;88760;-51
2022/09/11 01:16:14;;;;;;;9.13;5.03;;;;;;;;;;5062560;27;87663;-51
2022/09/11 01:18:44;;;;;;;7.73;4.40;;;;;;;;;;5064140;27;87713;-51
2022/09/11 01:21:19;;;;;;;7.37;4.40;;;;;;;;;;5052686;27;86854;-51
2022/09/11 01:23:52;;;;;;;6.77;4.33;;;;;;;;;;5032838;27;88978;-51
2022/09/11 01:26:41;;;;;;;11.17;4.87;;;;;;;;;;5037492;27;88728;-51
2022/09/11 01:29:12;;;;;;;8.60;5.07;;;;;;;;;;5026306;28;87190;-51
2022/09/11 01:31:41;;;;;;;8.53;4.77;;;;;;;;;;5035647;28;87128;-51
2022/09/11 01:34:10;;;;;;;7.53;4.67;;;;;;;;;;5051504;27;89159;-51
2022/09/11 01:36:39;;;;;;;7.63;5.07;;;;;;;;;;5043771;27;88856;-51
2022/09/11 01:39:07;;;;;;;7.93;4.50;;;;;;;;;;5044123;27;88037;-52
2022/09/11 01:41:39;;;;;;;5.83;4.10;;;;;;;;;;5043432;28;87573;-51
2022/09/11 01:44:09;;;;;;;8.23;5.33;;;;;;;;;;5048026;27;89745;-51
2022/09/11 01:46:39;;;;;;;9.93;4.67;;;;;;;;;;5025743;28;88891;-51
2022/09/11 01:49:09;;;;;;;6.10;4.23;;;;;;;;;;5042179;27;86913;-51
2022/09/11 01:51:37;;;;;;;9.60;5.37;;;;;;;;;;5029820;28;87144;-51
2022/09/11 01:54:07;;;;;;;6.60;4.60;;;;;;;;;;5034982;27;88833;-51
2022/09/11 01:56:37;;;;;;;7.60;4.73;;;;;;;;;;5027851;28;88772;-51
2022/09/11 01:59:06;;;;;;;4.97;3.47;;;;;;;;;;5027656;28;87689;-51
2022/09/11 02:01:34;;;;;;;6.33;3.80;;;;;;;;;;5023095;28;88148;-51
2022/09/11 02:04:06;;;;;;;9.80;4.10;;;;;;;;;;5022736;27;90660;-51
2022/09/11 02:06:35;;;;;;;9.43;4.73;;;;;;;;;;5027733;27;88849;-51
2022/09/11 02:09:04;;;;;;;6.67;4.20;;;;;;;;;;5042288;27;87902;-51
2022/09/11 02:11:32;;;;;;;9.13;5.13;;;;;;;;;;5033736;27;86987;-51
2022/09/11 02:14:02;;;;;;;7.13;4.50;;;;;;;;;;5043052;27;87890;-51
2022/09/11 02:16:34;;;;;;;10.10;4.43;;;;;;;;;;5039567;27;88752;-51
2022/09/11 02:19:04;;;;;;;5.73;3.77;;;;;;;;;;5023579;28;86882;-51
2022/09/11 02:21:33;;;;;;;6.37;3.83;;;;;;;;;;5023123;28;86893;-51
2022/09/11 02:24:01;;;;;;;5.87;3.83;;;;;;;;;;5038945;27;89177;-51
2022/09/11 02:26:30;;;;;;;7.73;4.87;;;;;;;;;;5033060;27;88549;-51
2022/09/11 02:28:59;;;;;;;6.17;3.90;;;;;;;;;;5040511;28;86952;-50
2022/09/11 02:31:27;;;;;;;5.10;3.73;;;;;;;;;;5029551;27;87010;-50
2022/09/11 02:33:56;;;;;;;5.93;3.97;;;;;;;;;;5047776;27;90322;-51
2022/09/11 02:36:30;;;;;;;6.60;4.13;;;;;;;;;;5042555;27;89359;-51
2022/09/11 02:39:02;;;;;;;4.27;3.37;;;;;;;;;;5022991;28;86825;-50
2022/09/11 02:41:32;;;;;;;6.70;4.03;;;;;;;;;;5022185;27;89075;-50
2022/09/11 02:44:03;;;;;;;7.17;3.80;;;;;;;;;;5023317;27;87713;-50
2022/09/11 02:46:47;;;;;;;7.10;4.03;;;;;;;;;;5025121;27;88213;-51
2022/09/11 02:49:19;;;;;;;6.30;3.73;;;;;;;;;;5026032;27;87330;-50
2022/09/11 02:51:50;;;;;;;7.97;3.53;;;;;;;;;;5020600;27;88239;-51
2022/09/11 02:54:20;;;;;;;7.27;4.20;;;;;;;;;;5021347;27;88069;-50
2022/09/11 02:56:49;;;;;;;4.67;3.23;;;;;;;;;;5022704;28;88545;-51
2022/09/11 02:59:18;;;;;;;6.70;4.30;;;;;;;;;;5027368;28;90120;-50
2022/09/11 03:01:47;;;;;;;5.70;3.30;;;;;;;;;;5022771;28;88863;-51
2022/09/11 03:04:17;;;;;;;4.00;3.03;;;;;;;;;;5021769;27;87909;-51
2022/09/11 03:06:47;;;;;;;7.80;3.73;;;;;;;;;;5034465;28;88840;-51
2022/09/11 03:09:17;;;;;;;4.67;3.17;;;;;;;;;;5039266;27;86955;-51
2022/09/11 03:11:45;;;;;;;4.93;3.20;;;;;;;;;;5027752;27;86952;-51
2022/09/11 03:14:14;;;;;;;4.43;3.57;;;;;;;;;;5055985;27;89134;-50
2022/09/11 03:16:42;;;;;;;4.87;3.10;;;;;;;;;;5035959;27;87404;-51
2022/09/11 03:19:11;;;;;;;4.00;2.90;;;;;;;;;;5039412;28;87032;-51
2022/09/11 03:21:39;;;;;;;5.80;3.57;;;;;;;;;;5040578;27;87090;-51
2022/09/11 03:24:08;;;;;;;4.93;2.97;;;;;;;;;;5034335;27;89765;-51
2022/09/11 03:26:38;;;;;;;6.00;3.70;;;;;;;;;;5040526;28;90111;-50
2022/09/11 03:29:07;;;;;;;5.03;3.00;;;;;;;;;;5040289;27;86969;-51
2022/09/11 03:31:35;;;;;;;5.63;3.07;;;;;;;;;;5028274;27;87062;-50
2022/09/11 03:34:07;;;;;;;4.43;2.93;;;;;;;;;;5054422;27;89289;-51
2022/09/11 03:36:35;;;;;;;4.90;3.73;;;;;;;;;;5062472;27;86949;-51
2022/09/11 03:39:04;;;;;;;7.23;3.33;;;;;;;;;;5062759;27;86764;-50
2022/09/11 03:41:32;;;;;;;5.87;3.53;;;;;;;;;;5054051;27;86215;-51
2022/09/11 03:44:03;;;;;;;4.77;3.10;;;;;;;;;;5032757;27;87858;-51
2022/09/11 03:46:32;;;;;;;5.10;2.80;;;;;;;;;;5022403;28;88895;-51
2022/09/11 03:49:00;;;;;;;5.00;3.00;;;;;;;;;;5021195;28;87882;-51
2022/09/11 03:51:30;;;;;;;6.33;3.20;;;;;;;;;;5047806;27;86870;-51
2022/09/11 03:54:00;;;;;;;5.13;3.17;;;;;;;;;;5032605;27;89287;-51
2022/09/11 03:56:28;;;;;;;3.20;2.57;;;;;;;;;;5039673;28;87794;-50
2022/09/11 03:58:57;;;;;;;2.37;2.17;;;;;;;;;;5021626;28;87077;-50
2022/09/11 04:01:26;;;;;;;5.33;3.07;;;;;;;;;;5028067;27;87056;-50
2022/09/11 04:03:54;;;;;;;4.23;2.60;;;;;;;;;;5041404;27;89214;-50
2022/09/11 04:06:23;;;;;;;4.07;2.53;;;;;;;;;;5035489;28;88507;-51
2022/09/11 04:08:51;;;;;;;4.33;2.87;;;;;;;;;;5027321;27;87000;-50
2022/09/11 04:11:20;;;;;;;4.33;2.27;;;;;;;;;;5021717;28;87140;-50
2022/09/11 04:13:48;;;;;;;3.47;2.57;;;;;;;;;;5038810;28;90154;-51
2022/09/11 04:16:17;;;;;;;2.77;2.40;;;;;;;;;;5040980;27;89389;-51
2022/09/11 04:18:48;;;;;;;3.27;2.30;;;;;;;;;;5023979;27;87103;-51
2022/09/11 04:21:16;;;;;;;3.80;2.57;;;;;;;;;;5046902;27;86937;-50
2022/09/11 04:23:45;;;;;;;3.13;2.20;;;;;;;;;;5058347;27;87834;-51
2022/09/11 04:26:14;;;;;;;2.53;2.20;;;;;;;;;;5061948;27;88836;-51
2022/09/11 04:28:43;;;;;;;3.90;2.53;;;;;;;;;;5024223;27;87050;-51
2022/09/11 04:31:11;;;;;;;2.20;1.90;;;;;;;;;;5028569;27;86269;-51
2022/09/11 04:33:39;;;;;;;3.73;2.10;;;;;;;;;;5031470;28;88942;-51
2022/09/11 04:36:09;;;;;;;3.30;2.63;;;;;;;;;;5022537;28;88879;-51
2022/09/11 04:38:39;;;;;;;2.93;2.33;;;;;;;;;;5053292;27;87878;-50
2022/09/11 04:41:07;;;;;;;2.77;1.83;;;;;;;;;;5043973;28;86891;-50
2022/09/11 04:43:37;;;;;;;2.07;1.50;;;;;;;;;;5041897;27;89035;-50
2022/09/11 04:46:06;;;;;;;2.87;1.90;;;;;;;;;;5043718;27;88565;-50
2022/09/11 04:48:35;;;;;;;2.90;2.07;;;;;;;;;;5039470;27;87773;-50
2022/09/11 04:51:04;;;;;;;3.50;1.90;;;;;;;;;;5030967;28;87069;-51
2022/09/11 04:53:34;;;;;;;3.30;1.93;;;;;;;;;;5032290;28;88965;-51
2022/09/11 04:56:03;;;;;;;3.60;2.50;;;;;;;;;;5041027;28;88529;-51
2022/09/11 04:58:31;;;;;;;2.90;2.33;;;;;;;;;;5048846;27;86969;-50
2022/09/11 05:00:59;;;;;;;2.30;2.10;;;;;;;;;;5025311;28;86890;-51
2022/09/11 05:03:28;;;;;;;2.97;1.83;;;;;;;;;;5024435;27;89899;-51
2022/09/11 05:05:57;;;;;;;1.67;1.53;;;;;;;;;;5024190;28;89631;-51
2022/09/11 05:08:25;;;;;;;5.40;2.10;;;;;;;;;;5046329;27;87443;-51
2022/09/11 05:10:56;;;;;;;3.47;1.97;;;;;;;;;;5059774;27;87137;-50
2022/09/11 05:13:24;;;;;;;3.47;2.00;;;;;;;;;;5049718;27;87972;-51
2022/09/11 05:15:52;;;;;;;3.07;2.27;;;;;;;;;;5061705;27;88733;-52
2022/09/11 05:18:21;;;;;;;3.30;2.10;;;;;;;;;;5044289;27;86981;-52
2022/09/11 05:20:49;;;;;;;1.83;1.70;;;;;;;;;;5046526;27;86238;-52
2022/09/11 05:23:17;;;;;;;3.77;2.13;;;;;;;;;;5045423;27;89218;-53
2022/09/11 05:25:46;;;;;;;2.60;2.20;;;;;;;;;;5042581;27;88974;-53
2022/09/11 05:28:16;;;;;;;2.77;2.07;;;;;;;;;;5042312;28;88349;-53
2022/09/11 05:30:44;;;;;;;3.60;2.53;;;;;;;;;;5041885;28;87138;-53
2022/09/11 05:33:13;;;;;;;4.77;2.60;;;;;;;;;;5043855;27;88082;-53
2022/09/11 05:35:41;;;;;;;7.13;3.10;;;;;;;;;;5042793;27;87795;-53
2022/09/11 05:38:09;;;;;;;5.03;3.07;;;;;;;;;;5040219;27;87744;-53
2022/09/11 05:40:38;;;;;;;4.70;2.73;;;;;;;;;;5038040;27;87064;-54
2022/09/11 05:43:06;;;;;;;6.90;3.50;;;;;;;;;;5034984;27;88753;-53
2022/09/11 05:45:36;;;;;;;6.27;3.40;;;;;;;;;;5037969;27;88449;-53
2022/09/11 05:48:04;;;;;;;5.80;3.83;;;;;;;;;;5047209;27;86968;-55
2022/09/11 05:50:33;;;;;;;6.07;3.50;;;;;;;;;;5037973;27;87028;-55
2022/09/11 05:53:01;;;;;;;7.60;4.17;;;;;;;;;;5047761;27;88844;-53
2022/09/11 05:55:29;;;;;;;7.03;4.50;;;;;;;;;;5042150;27;88156;-54
2022/09/11 05:57:58;;;;;;;8.97;4.13;;;;;;;;;;5047828;27;87282;-54
2022/09/11 06:00:26;;;;;;;9.37;5.00;;;;;;;;;;5038541;27;87019;-55
2022/09/11 06:02:57;;;;;;;9.97;5.20;;;;;;;;;;5028832;27;89316;-54
2022/09/11 06:05:26;;;;;;;12.50;6.27;;;;;;;;;;5031740;27;88931;-54
2022/09/11 06:07:54;;;;;;;10.17;5.20;;;;;;;;;;5061087;27;87069;-55
2022/09/11 06:10:22;;;;;;;12.40;6.57;;;;;;;;;;5062952;27;86225;-56
2022/09/11 06:12:50;;;;;;;21.00;8.00;;;;;;;;;;5042655;27;87674;-55
2022/09/11 06:15:19;;;;;;;18.27;9.17;;;;;;;;;;5041485;28;88607;-55
2022/09/11 06:18:08;;;;;;;23.47;9.20;;;;;;;;;;5022057;28;87918;-54
2022/09/11 06:20:36;;;;;;;18.50;7.93;;;;;;;;;;5030275;27;87016;-55
2022/09/11 06:23:05;;;;;;;19.83;8.47;;;;;;;;;;5042553;27;87745;-54
2022/09/11 06:25:36;;;;;;;22.13;9.10;;;;;;;;;;5043077;27;87786;-55
2022/09/11 06:28:04;;;;;;;24.80;11.27;;;;;;;;;;5042122;27;87081;-54
2022/09/11 06:30:33;;;;;;;20.73;10.43;;;;;;;;;;5025254;27;86995;-55
2022/09/11 06:33:02;;;;;;;25.90;11.80;;;;;;;;;;5029143;27;89283;-55
2022/09/11 06:35:32;;;;;;;24.80;12.80;;;;;;;;;;5047497;27;88804;-54
2022/09/11 06:38:01;;;;;;;24.37;10.63;;;;;;;;;;5028493;27;87079;-54
2022/09/11 06:40:30;;;;;;;22.53;11.27;;;;;;;;;;5029434;27;87013;-55
2022/09/11 06:42:58;;;;;;;29.97;11.03;;;;;;;;;;5038544;27;90097;-55
2022/09/11 06:45:29;;;;;;;26.10;12.27;;;;;;;;;;5053189;27;89628;-55
2022/09/11 06:47:58;;;;;;;26.20;11.10;;;;;;;;;;5041479;27;87691;-55
2022/09/11 06:50:26;;;;;;;27.30;11.87;;;;;;;;;;5030668;27;86925;-54
2022/09/11 06:52:56;;;;;;;25.70;11.60;;;;;;;;;;5037395;27;89033;-54
2022/09/11 06:55:26;;;;;;;25.53;12.30;;;;;;;;;;5058768;27;88937;-54
2022/09/11 06:57:54;;;;;;;21.23;10.57;;;;;;;;;;5045720;27;87037;-53
2022/09/11 07:00:22;;;;;;;20.63;10.97;;;;;;;;;;5039069;27;86174;-54
2022/09/11 07:02:52;;;;;;;25.43;11.77;;;;;;;;;;5032762;27;89069;-54
2022/09/11 07:05:21;;;;;;;23.87;11.63;;;;;;;;;;5039327;27;87549;-54
2022/09/11 07:07:50;;;;;;;28.80;11.30;;;;;;;;;;5020556;28;88130;-54
2022/09/11 07:10:19;;;;;;;21.43;11.43;;;;;;;;;;5021723;28;87157;-54
2022/09/11 07:12:47;;;;;;;27.73;11.33;;;;;;;;;;5020846;28;88852;-54
2022/09/11 07:15:16;;;;;;;21.30;10.13;;;;;;;;;;5020829;28;87611;-54
2022/09/11 07:17:44;;;;;;;24.33;10.20;;;;;;;;;;5021498;28;87048;-54
2022/09/11 07:20:12;;;;;;;31.97;10.67;;;;;;;;;;5021009;28;87029;-54
2022/09/11 07:22:42;;;;;;;24.83;9.80;;;;;;;;;;5033664;28;89136;-54
2022/09/11 07:25:10;;;;;;;25.87;12.43;;;;;;;;;;5037181;27;87661;-54
2022/09/11 07:27:40;;;;;;;22.40;10.37;;;;;;;;;;5029080;28;87021;-55
2022/09/11 07:30:09;;;;;;;20.87;10.37;;;;;;;;;;5053310;27;87035;-54
2022/09/11 07:32:37;;;;;;;22.80;8.97;;;;;;;;;;5055762;27;89006;-54
2022/09/11 07:35:06;;;;;;;22.03;10.97;;;;;;;;;;5046304;27;88734;-54
2022/09/11 07:37:34;;;;;;;21.00;9.83;;;;;;;;;;5059873;27;87015;-54
2022/09/11 07:40:02;;;;;;;20.17;9.77;;;;;;;;;;5048775;27;86774;-54
2022/09/11 07:42:32;;;;;;;18.33;9.17;;;;;;;;;;5058865;27;89104;-53
2022/09/11 07:45:02;;;;;;;22.37;10.13;;;;;;;;;;5044108;27;87030;-54
2022/09/11 07:47:32;;;;;;;17.87;9.40;;;;;;;;;;5050058;27;87047;-54
2022/09/11 07:50:00;;;;;;;20.20;9.00;;;;;;;;;;5057802;27;86400;-54
2022/09/11 07:52:29;;;;;;;17.37;8.53;;;;;;;;;;5040576;27;88892;-52
2022/09/11 07:54:57;;;;;;;20.27;8.57;;;;;;;;;;5057009;27;88586;-54
2022/09/11 07:57:26;;;;;;;18.30;8.57;;;;;;;;;;5043223;27;87958;-54
2022/09/11 07:59:54;;;;;;;18.67;8.40;;;;;;;;;;5038715;28;86911;-55
2022/09/11 08:02:24;;;;;;;15.23;8.07;;;;;;;;;;5040884;27;89049;-54
2022/09/11 08:04:52;;;;;;;14.17;7.90;;;;;;;;;;5043965;27;87993;-54
2022/09/11 08:07:22;;;;;;;12.63;7.03;;;;;;;;;;5041998;27;87077;-55
2022/09/11 08:09:50;;;;;;;17.10;7.90;;;;;;;;;;5040423;28;87010;-54
2022/09/11 08:12:38;;;;;;;17.47;8.73;;;;;;;;;;5044853;27;87153;-54
2022/09/11 08:15:07;;;;;;;13.40;8.27;;;;;;;;;;5051400;27;87504;-54
2022/09/11 08:17:37;;;;;;;13.30;7.27;;;;;;;;;;5061811;27;87189;-54
2022/09/11 08:20:05;;;;;;;13.00;6.47;;;;;;;;;;5058683;27;87142;-53
2022/09/11 08:22:34;;;;;;;13.93;7.07;;;;;;;;;;5050731;27;89969;-54
2022/09/11 08:25:02;;;;;;;15.47;7.40;;;;;;;;;;5047865;27;89876;-54
2022/09/11 08:27:30;;;;;;;15.30;6.93;;;;;;;;;;5034715;27;87447;-54
2022/09/11 08:29:58;;;;;;;13.00;7.40;;;;;;;;;;5046006;27;87011;-53
2022/09/11 08:32:27;;;;;;;12.63;6.33;;;;;;;;;;5043096;27;89157;-54
2022/09/11 08:34:57;;;;;;;13.00;5.43;;;;;;;;;;5060260;27;88599;-53
2022/09/11 08:37:25;;;;;;;11.73;6.03;;;;;;;;;;5064699;27;86920;-54
2022/09/11 08:39:54;;;;;;;13.13;7.10;;;;;;;;;;5024518;28;86281;-54
2022/09/11 08:42:26;;;;;;;9.17;5.97;;;;;;;;;;5055264;27;89098;-54
2022/09/11 08:44:55;;;;;;;9.90;5.57;;;;;;;;;;5044223;27;87417;-54
2022/09/11 08:47:25;;;;;;;10.13;5.80;;;;;;;;;;5044138;27;87884;-54
2022/09/11 08:49:54;;;;;;;8.80;5.40;;;;;;;;;;5046850;27;87096;-54
2022/09/11 08:52:23;;;;;;;13.37;6.00;;;;;;;;;;5030652;27;88749;-54
2022/09/11 08:54:52;;;;;;;9.00;5.97;;;;;;;;;;5044771;27;87863;-54
2022/09/11 08:57:21;;;;;;;12.33;5.57;;;;;;;;;;5044876;27;86968;-54
2022/09/11 08:59:58;;;;;;;7.63;5.00;;;;;;;;;;5044169;27;87040;-54
2022/09/11 09:02:40;;;;;;;9.77;5.97;;;;;;;;;;5030522;27;88033;-54
2022/09/11 09:05:14;;;;;;;11.50;5.53;;;;;;;;;;5035632;27;88701;-54
2022/09/11 09:07:47;;;;;;;11.30;5.30;;;;;;;;;;5029002;27;87109;-54
2022/09/11 09:10:20;;;;;;;7.07;4.17;;;;;;;;;;5034139;27;87122;-54
2022/09/11 09:12:50;;;;;;;7.70;4.63;;;;;;;;;;5052207;27;89878;-53
2022/09/11 09:15:21;;;;;;;8.43;4.93;;;;;;;;;;5026424;27;89805;-53
2022/09/11 09:17:58;;;;;;;11.03;5.23;;;;;;;;;;5038161;27;87096;-53
2022/09/11 09:20:27;;;;;;;10.80;5.37;;;;;;;;;;5053051;27;87057;-54
2022/09/11 09:22:57;;;;;;;11.67;5.70;;;;;;;;;;5037179;27;89088;-52
2022/09/11 09:25:25;;;;;;;9.17;6.13;;;;;;;;;;5059759;27;89111;-52
2022/09/11 09:27:54;;;;;;;9.33;5.67;;;;;;;;;;5034080;27;87016;-53
2022/09/11 09:30:26;;;;;;;12.10;6.00;;;;;;;;;;5023854;28;86281;-53
2022/09/11 09:32:57;;;;;;;16.97;7.33;;;;;;;;;;5023044;28;88125;-53
2022/09/11 09:35:26;;;;;;;11.33;6.13;;;;;;;;;;5032172;28;88899;-56
2022/09/11 09:37:56;;;;;;;13.27;6.67;;;;;;;;;;5043521;28;87862;-53
2022/09/11 09:40:24;;;;;;;12.57;6.70;;;;;;;;;;5043468;27;87053;-53
2022/09/11 09:42:56;;;;;;;13.37;6.77;;;;;;;;;;5027156;28;89282;-53
2022/09/11 09:45:36;;;;;;;14.43;8.47;;;;;;;;;;5022775;28;88812;-54
2022/09/11 09:48:05;;;;;;;14.00;8.40;;;;;;;;;;5026550;27;87114;-53
2022/09/11 09:50:34;;;;;;;17.57;8.93;;;;;;;;;;5046431;27;87011;-53
2022/09/11 09:53:04;;;;;;;17.90;8.80;;;;;;;;;;5040119;27;88858;-54
2022/09/11 09:55:34;;;;;;;17.67;8.13;;;;;;;;;;5043353;27;89041;-53
2022/09/11 09:58:03;;;;;;;22.20;9.43;;;;;;;;;;5045072;27;87083;-54
2022/09/11 10:00:31;;;;;;;18.63;8.73;;;;;;;;;;5062786;27;86931;-53
2022/09/11 10:02:59;;;;;;;20.77;8.87;;;;;;;;;;5062824;27;89782;-53
2022/09/11 10:05:28;;;;;;;16.13;7.87;;;;;;;;;;5039555;27;89482;-53
2022/09/11 10:07:57;;;;;;;15.03;8.20;;;;;;;;;;5048668;27;89039;-53
2022/09/11 10:10:28;;;;;;;18.47;7.63;;;;;;;;;;5026056;27;87159;-53
2022/09/11 10:12:57;;;;;;;19.10;9.27;;;;;;;;;;5028404;27;89203;-54
2022/09/11 10:15:47;;;;;;;14.63;7.30;;;;;;;;;;5042507;27;87387;-53
2022/09/11 10:18:22;;;;;;;15.50;7.43;;;;;;;;;;5048698;27;87050;-53
2022/09/11 10:20:50;;;;;;;25.90;8.17;;;;;;;;;;5049449;27;86352;-53
2022/09/11 10:23:23;;;;;;;16.40;7.70;;;;;;;;;;5045734;27;87779;-53
2022/09/11 10:25:52;;;;;;;16.27;6.53;;;;;;;;;;5042763;28;88839;-52
2022/09/11 10:28:23;;;;;;;19.53;8.00;;;;;;;;;;5040864;28;88251;-53
2022/09/11 10:30:57;;;;;;;17.23;7.70;;;;;;;;;;5040953;27;87159;-54
2022/09/11 10:33:27;;;;;;;10.30;5.73;;;;;;;;;;5039473;27;89167;-54
2022/09/11 10:35:55;;;;;;;17.13;6.03;;;;;;;;;;5040631;28;88767;-53
2022/09/11 10:38:25;;;;;;;15.30;6.90;;;;;;;;;;5041670;28;86934;-54
2022/09/11 10:40:56;;;;;;;8.43;4.73;;;;;;;;;;5041533;27;86870;-53
2022/09/11 10:43:25;;;;;;;13.17;5.07;;;;;;;;;;5041135;27;89059;-53
2022/09/11 10:46:03;;;;;;;9.90;4.83;;;;;;;;;;5039351;27;86292;-54
2022/09/11 10:48:32;;;;;;;7.40;3.97;;;;;;;;;;5040078;28;87037;-53
2022/09/11 10:51:10;;;;;;;9.97;4.73;;;;;;;;;;5038231;27;87602;-53
2022/09/11 10:53:40;;;;;;;15.20;4.87;;;;;;;;;;5037442;27;90082;-54
2022/09/11 10:56:10;;;;;;;7.53;4.60;;;;;;;;;;5040221;28;88553;-53
2022/09/11 10:58:39;;;;;;;9.67;4.23;;;;;;;;;;5038653;28;87035;-53
2022/09/11 11:01:08;;;;;;;5.23;3.47;;;;;;;;;;5040724;28;87125;-54
2022/09/11 11:03:36;;;;;;;6.30;3.60;;;;;;;;;;5044669;27;89461;-54
2022/09/11 11:06:07;;;;;;;6.03;3.37;;;;;;;;;;5041680;27;88760;-54
2022/09/11 11:08:42;;;;;;;8.40;3.03;;;;;;;;;;5043201;27;87054;-53
2022/09/11 11:11:16;;;;;;;7.47;3.90;;;;;;;;;;5041999;27;86314;-54
2022/09/11 11:13:53;;;;;;;6.83;4.50;;;;;;;;;;5040786;27;88147;-54
2022/09/11 11:16:23;;;;;;;7.83;3.53;;;;;;;;;;5030526;27;89003;-53
2022/09/11 11:18:54;;;;;;;5.07;3.20;;;;;;;;;;5041501;28;87854;-53
2022/09/11 11:21:26;;;;;;;7.40;3.93;;;;;;;;;;5040342;27;87379;-52
2022/09/11 11:23:58;;;;;;;4.27;2.90;;;;;;;;;;5042325;27;89127;-53
2022/09/11 11:26:31;;;;;;;5.83;3.20;;;;;;;;;;5037144;27;88673;-53
2022/09/11 11:29:03;;;;;;;9.70;3.17;;;;;;;;;;5044282;27;87240;-54
2022/09/11 11:31:37;;;;;;;4.53;2.67;;;;;;;;;;5038388;28;87428;-53
2022/09/11 11:34:21;;;;;;;4.43;2.83;;;;;;;;;;5038688;28;89133;-53
2022/09/11 11:36:51;;;;;;;6.17;3.30;;;;;;;;;;5039165;28;89002;-53
2022/09/11 11:39:20;;;;;;;7.70;3.63;;;;;;;;;;5040548;28;86888;-53
2022/09/11 11:41:50;;;;;;;6.33;2.80;;;;;;;;;;5040086;28;87164;-52
2022/09/11 11:44:28;;;;;;;3.70;2.20;;;;;;;;;;5038215;28;89321;-53
2022/09/11 11:46:56;;;;;;;6.23;2.23;;;;;;;;;;5040504;27;89721;-53
2022/09/11 11:49:27;;;;;;;6.20;3.07;;;;;;;;;;5039600;28;86928;-53
2022/09/11 11:51:56;;;;;;;4.73;2.63;;;;;;;;;;5040768;28;86899;-53
2022/09/11 11:54:25;;;;;;;2.97;2.40;;;;;;;;;;5037748;28;89153;-53
2022/09/11 11:56:55;;;;;;;5.00;2.50;;;;;;;;;;5041714;28;88555;-53
2022/09/11 11:59:25;;;;;;;3.37;1.97;;;;;;;;;;5041899;28;86854;-53
2022/09/11 12:01:55;;;;;;;4.40;2.67;;;;;;;;;;5042162;28;86155;-53
2022/09/11 12:04:26;;;;;;;2.80;1.97;;;;;;;;;;5041694;28;88276;-53
2022/09/11 12:06:54;;;;;;;3.40;2.20;;;;;;;;;;5040722;28;88907;-53
2022/09/11 12:09:22;;;;;;;3.50;2.70;;;;;;;;;;5039705;28;88037;-53
2022/09/11 12:11:51;;;;;;;2.80;2.00;;;;;;;;;;5039765;28;87039;-53
2022/09/11 12:14:26;;;;;;;3.17;1.70;;;;;;;;;;5039462;28;88900;-53
2022/09/11 12:16:56;;;;;;;2.83;1.80;;;;;;;;;;5039756;28;88261;-53
2022/09/11 12:19:25;;;;;;;3.90;2.10;;;;;;;;;;5039941;28;87033;-53
2022/09/11 12:22:06;;;;;;;4.37;2.03;;;;;;;;;;5037708;28;87030;-57
2022/09/11 12:24:53;;;;;;;3.87;2.17;;;;;;;;;;5039792;27;89348;-53
2022/09/11 12:27:41;;;;;;;2.77;1.93;;;;;;;;;;5038767;28;88830;-53
2022/09/11 12:30:21;;;;;;;8.20;2.17;;;;;;;;;;5039653;28;86999;-53
2022/09/11 12:32:49;;;;;;;4.10;1.50;;;;;;;;;;5039960;27;87300;-53
2022/09/11 12:35:33;;;;;;;1.57;1.27;;;;;;;;;;5038684;28;90110;-52
2022/09/11 12:38:03;;;;;;;1.93;1.67;;;;;;;;;;5037716;28;89647;-52
2022/09/11 12:40:36;;;;;;;1.60;1.30;;;;;;;;;;5039822;28;86850;-52
2022/09/11 12:43:23;;;;;;;1.77;1.27;;;;;;;;;;5038990;28;87028;-52
2022/09/11 12:45:53;;;;;;;1.57;1.07;;;;;;;;;;5036043;28;88958;-52
2022/09/11 12:48:22;;;;;;;3.10;1.40;;;;;;;;;;5039795;27;88791;-52
2022/09/11 12:50:50;;;;;;;1.67;1.13;;;;;;;;;;5039538;28;86861;-52
2022/09/11 12:53:19;;;;;;;1.73;1.20;;;;;;;;;;5039944;28;86190;-53
2022/09/11 12:55:51;;;;;;;2.50;1.27;;;;;;;;;;5039529;28;88879;-52
2022/09/11 12:58:24;;;;;;;2.37;1.40;;;;;;;;;;5041253;27;88696;-52
2022/09/11 13:01:01;;;;;;;2.27;1.40;;;;;;;;;;5039473;28;87916;-52
2022/09/11 13:03:29;;;;;;;3.83;2.03;;;;;;;;;;5042537;28;87068;-53
2022/09/11 13:05:59;;;;;;;1.27;1.13;;;;;;;;;;5042483;28;88042;-53
2022/09/11 13:08:27;;;;;;;1.50;1.40;;;;;;;;;;5042682;28;88767;-52
2022/09/11 13:11:11;;;;;;;1.23;1.10;;;;;;;;;;5042451;28;86947;-52
2022/09/11 13:13:44;;;;;;;1.53;1.20;;;;;;;;;;5040935;28;86934;-52
2022/09/11 13:16:21;;;;;;;2.97;1.20;;;;;;;;;;5039917;28;87024;-52
2022/09/11 13:18:49;;;;;;;1.83;1.30;;;;;;;;;;5042757;28;88761;-52
2022/09/11 13:21:18;;;;;;;1.63;1.20;;;;;;;;;;5042567;28;87060;-53
2022/09/11 13:23:53;;;;;;;1.27;1.13;;;;;;;;;;5041206;27;87392;-53
2022/09/11 13:26:25;;;;;;;4.00;1.73;;;;;;;;;;5041735;28;89856;-53
2022/09/11 13:28:54;;;;;;;2.10;1.53;;;;;;;;;;5039836;28;89601;-52
2022/09/11 13:31:26;;;;;;;1.63;1.40;;;;;;;;;;5043044;28;86997;-52
2022/09/11 13:33:54;;;;;;;2.77;1.30;;;;;;;;;;5040233;28;87053;-53
2022/09/11 13:36:23;;;;;;;2.87;1.27;;;;;;;;;;5042402;28;89022;-53
2022/09/11 13:38:53;;;;;;;1.90;1.07;;;;;;;;;;5039342;28;88745;-53
2022/09/11 13:41:22;;;;;;;1.20;1.00;;;;;;;;;;5042163;28;87172;-53
2022/09/11 13:43:51;;;;;;;2.70;1.60;;;;;;;;;;5042285;28;86414;-53
2022/09/11 13:46:26;;;;;;;2.57;1.43;;;;;;;;;;5042098;28;88946;-53
2022/09/11 13:48:57;;;;;;;2.80;1.30;;;;;;;;;;5039620;28;88764;-52
2022/09/11 13:51:26;;;;;;;1.17;1.07;;;;;;;;;;5042004;28;88251;-52
2022/09/11 13:53:56;;;;;;;1.37;1.27;;;;;;;;;;5040654;27;87019;-52
2022/09/11 13:56:40;;;;;;;1.60;1.40;;;;;;;;;;5041331;28;88097;-52
2022/09/11 13:59:27;;;;;;;2.00;1.27;;;;;;;;;;5041094;28;88934;-52
2022/09/11 14:01:59;;;;;;;1.87;1.20;;;;;;;;;;5039194;28;87231;-52
2022/09/11 14:04:28;;;;;;;1.70;1.33;;;;;;;;;;5041233;28;87138;-52
2022/09/11 14:06:56;;;;;;;1.20;1.13;;;;;;;;;;5038329;28;89140;-52
2022/09/11 14:09:24;;;;;;;0.93;0.90;;;;;;;;;;5041201;27;88880;-52
2022/09/11 14:11:53;;;;;;;2.63;1.63;;;;;;;;;;5040884;28;87140;-52
2022/09/11 14:14:22;;;;;;;1.77;1.33;;;;;;;;;;5040781;28;88057;-52
2022/09/11 14:16:51;;;;;;;2.00;1.57;;;;;;;;;;5041252;28;88659;-52
2022/09/11 14:19:21;;;;;;;2.23;1.33;;;;;;;;;;5038393;28;88498;-52
2022/09/11 14:21:50;;;;;;;2.43;1.30;;;;;;;;;;5040222;28;87024;-53
2022/09/11 14:24:28;;;;;;;1.80;1.13;;;;;;;;;;5039765;27;87435;-52
2022/09/11 14:26:57;;;;;;;1.83;1.27;;;;;;;;;;5038995;28;87622;-52
2022/09/11 14:29:26;;;;;;;2.33;1.73;;;;;;;;;;5039387;28;88861;-53
2022/09/11 14:31:55;;;;;;;2.33;1.40;;;;;;;;;;5040551;27;87097;-53
2022/09/11 14:34:26;;;;;;;2.87;1.53;;;;;;;;;;5039648;28;86403;-54
2022/09/11 14:36:54;;;;;;;3.43;1.80;;;;;;;;;;5039970;28;88929;-51
2022/09/11 14:39:27;;;;;;;3.47;1.80;;;;;;;;;;5037515;28;87710;-53
2022/09/11 14:41:55;;;;;;;4.53;1.80;;;;;;;;;;5040030;28;88085;-53
2022/09/11 14:44:25;;;;;;;2.60;1.83;;;;;;;;;;5040310;28;87393;-54
2022/09/11 14:46:53;;;;;;;3.93;2.17;;;;;;;;;;5040152;28;89244;-53
2022/09/11 14:49:22;;;;;;;2.37;1.80;;;;;;;;;;5040264;28;88931;-53
2022/09/11 14:51:54;;;;;;;1.83;1.73;;;;;;;;;;5040148;28;87592;-53
2022/09/11 14:54:22;;;;;;;3.30;2.10;;;;;;;;;;5039402;28;87051;-53
2022/09/11 14:56:51;;;;;;;2.97;1.97;;;;;;;;;;5038834;28;89019;-53